Details From RJAA - Narita Intl
To CYUL - Montreal Pierre E Trudeau Intl
Flight Number -
Tags Generated
Created
Modified
Stats Distance 5,591 nm / 10,354 km
Max Altitude 0 ft / 0 m
Waypoints 6
Social Downloads 0
Likes 0
Share VATSIM

Download

Looking for another format? Having issues loading an existing format? Contact us
Advertisement - Login to hide

Notes

Generated

Route

RJAA AKESI MANUB OKIKE ANTAG CYUL

ID Type Via Altitude Latitude Longitude Leg Dist Tot Dist Heading (true) Name
O RJAA APT - 0 ft / 0 m 35.80271˚ 140.37991˚ - 0 nm - -
AKESI FIX - 0 ft / 0 m 42.55456˚ 144.07321˚ 440 nm 440 nm 22° / 24° -
MANUB FIX - 0 ft / 0 m 58.73333˚ 159.56667˚ 1130 nm 1570 nm 25° / 38° -
OKIKE FIX - 0 ft / 0 m 71.01137˚ -154.35323˚ 1337 nm 2908 nm 38° / 81° -
ANTAG FIX - 0 ft / 0 m 45.74667˚ -73.94433˚ 2663 nm 5571 nm 80° / 153° -
O CYUL APT - 0 ft / 0 m 45.46250˚ -73.76500˚ 18 nm 5590 nm 156° / 156° -

Altitude Profile

Advertisement - Login to hide

Weather


0- 5 10 15 20 25 30 35+ Temperature / ° C

Clouds and Precipitation
Forecast for 2017-12-13 00:00 UTC. Updated an hour ago

Ground ~20,000 ft ~40,000 ft Winds

RJAA

Details ICAO RJAA (NRT)
Name NARITA INTL
Region Japan
Timezone Asia/Tokyo (UTC+9.0)
Stats Elevation 141 ft / 43 m (AMSL)
Location 35.776552° 140.382770°
Runways 2
Magnetic Variation 7.405° W

METAR

RJAA 122200Z 32002KT 9999 FEW030 M00/M06 Q1014 NOSIG

Decode

TAF

TAF RJAA 121706Z 1218/1400 31008KT 9999 FEW030= TAF RJBB 121708Z 1218/1400 29023KT 9999 FEW020 BKN050 TEMPO 1303/1306 29023G33KT BECMG 1312/1315 34013KT

Decode

Departure Runways

ID Width Length Bearing (true) Bearing (mag) Surface Threshold Offset Overrun Length
16L 196 ft / 60 m 7,162 ft / 2,183 m 149.61° 157.02° Asphalt 190 ft / 58 m 0 ft / 0 m
16R 196 ft / 60 m 13,142 ft / 4,006 m 149.61° 157.02° Asphalt 0 ft / 0 m 410 ft / 125 m
34L 196 ft / 60 m 13,142 ft / 4,006 m 329.62° 337.03° Asphalt 0 ft / 0 m 415 ft / 126 m
34R 196 ft / 60 m 7,162 ft / 2,183 m 329.62° 337.03° Asphalt 190 ft / 58 m 0 ft / 0 m

CYUL

Details ICAO CYUL (YUL)
Name Montreal Pierre E Trudeau Intl
Region Canada
Timezone America/Montreal (UTC-5.0)
Stats Elevation 117 ft / 36 m (AMSL)
Location 45.467269° -73.744028°
Runways 3
Magnetic Variation 14.322° W

METAR

CYUL 122219Z 01015G22KT 3SM -SN DRSN SCT014 OVC024 M08/M10 A2944 RMK SF3SC5 SLP975

Decode

TAF

TAF TAF AMD CYUL 122109Z 1221/1318 01015KT 3/4SM -SN VV005 TEMPO 1221/1222 2SM -SN OVC010 FM122200 01012KT 21/2SM -SN OVC008 TEMPO 1222/1303 6SM -SN OVC020 BECMG 1300/1302 30010KT FM130300 30012KT 4SM -SN OVC015 FM130900 29015KT 5SM -SHSN OVC025 BECMG 1310/1312 28020G30KT RMK NXT FCST BY 130000Z

Decode

Destination Runways

ID Width Length Bearing (true) Bearing (mag) Surface Threshold Offset Overrun Length
06L 200 ft / 61 m 11,020 ft / 3,359 m 42.62° 56.94° Asphalt 0 ft / 0 m 0 ft / 0 m
06R 200 ft / 61 m 9,706 ft / 2,958 m 41.23° 55.55° Asphalt 0 ft / 0 m 0 ft / 0 m
10 200 ft / 61 m 6,831 ft / 2,082 m 87.45° 101.77° Asphalt 0 ft / 0 m 0 ft / 0 m
24L 200 ft / 61 m 9,706 ft / 2,958 m 221.25° 235.57° Asphalt 0 ft / 0 m 0 ft / 0 m
24R 200 ft / 61 m 11,020 ft / 3,359 m 222.64° 236.96° Asphalt 0 ft / 0 m 0 ft / 0 m
28 200 ft / 61 m 6,831 ft / 2,082 m 267.47° 281.79° Asphalt 0 ft / 0 m 0 ft / 0 m

Approach Navaids

Runway Type Ident Frequency Range Bearing (true) Bearing (mag) Slope Elevation
06L Localiser IUL 109.30 MHz 18 nm / 33 km 42.53° 56.85° - 115 ft / 35 m (AMSL)
06L Glidescope IUL 109.30 MHz 10 nm / 19 km 58.00° 72.32° 3.00° 116 ft / 35 m (AMSL)
06R Localiser IOA 110.50 MHz 18 nm / 33 km 42.82° 57.15° - 116 ft / 35 m (AMSL)
06R Glidescope IOA 110.50 MHz 10 nm / 19 km 58.00° 72.32° 3.00° 116 ft / 35 m (AMSL)
10 Localiser IDO 110.10 MHz 18 nm / 33 km 88.03° 102.35° - 116 ft / 35 m (AMSL)
10 Glidescope IDO 110.10 MHz 10 nm / 19 km 103.00° 117.32° 3.00° 116 ft / 35 m (AMSL)
24L Localiser IMQ 110.50 MHz 18 nm / 33 km 222.83° 237.15° - 116 ft / 35 m (AMSL)
24L Glidescope IMQ 110.50 MHz 10 nm / 19 km 238.00° 252.32° 3.00° 116 ft / 35 m (AMSL)
24R Localiser IZZ 111.90 MHz 18 nm / 33 km 222.53° 236.85° - 116 ft / 35 m (AMSL)
24R Glidescope IZZ 111.90 MHz 10 nm / 19 km 238.00° 252.32° 3.00° 116 ft / 35 m (AMSL)

Popular Alternatives